Terminal Aerodrome Forecast
Issued by NWS

Home | Current Version | Previous Version | Text Only | Print | Product List | Glossary On
Versions: 1 2 3 4 5 6 7 8 9 10 11 12 13 14 15 16 17 18 19 20 21 22 23 24 25
000
FTUS41 KBOX 231128
TAFACK
TAF
KACK 231128Z 2312/2412 25014G25KT P6SM BKN080
     FM231700 24012G22KT P6SM SCT070
     FM232100 23009KT P6SM FEW200
     FM240400 19008KT P6SM BKN130
     FM240800 15013KT P6SM BKN110
     FM240900 14015KT P6SM -RA OVC090=

USA.gov is the U.S. government's official web portal to all federal, state and local government web resources and services.